Time;durP1;ratioP1;P1;durP2;ratioP2;P2;SDS_P1;SDS_P2;PMS_P1;PMS_P2;Temp;Humidity;BMP_temperature;BMP_pressure;BME280_temperature;BME280_humidity;BME280_pressure;Samples;Min_cycle;Max_cycle;Signal;HPM_P1;HPM_P2
2022/03/04 00:02:06;;;;;;;12.50;8.85;;;19.10;56.00;;;;;;5012370;28;20057;-74
2022/03/04 00:04:36;;;;;;;11.77;8.20;;;19.10;55.90;;;;;;5012443;28;20072;-75
2022/03/04 00:07:03;;;;;;;13.43;8.63;;;19.00;56.00;;;;;;5012450;28;20046;-76
2022/03/04 00:09:29;;;;;;;12.20;8.68;;;19.00;55.90;;;;;;5011921;28;20044;-74
2022/03/04 00:11:54;;;;;;;14.05;8.60;;;19.00;56.00;;;;;;5011993;28;20485;-74
2022/03/04 00:14:20;;;;;;;11.57;8.50;;;19.00;56.10;;;;;;5011577;28;20038;-74
2022/03/04 00:16:46;;;;;;;11.90;8.68;;;18.90;56.00;;;;;;5012567;28;20022;-75
2022/03/04 00:19:11;;;;;;;11.95;8.77;;;18.90;56.00;;;;;;5012949;28;20018;-75
2022/03/04 00:21:47;;;;;;;11.13;8.02;;;18.90;56.00;;;;;;5012323;28;20139;-74
2022/03/04 00:24:13;;;;;;;;;;;18.80;56.00;;;;;;5012544;28;20112;-74
2022/03/04 00:26:39;;;;;;;12.40;8.02;;;18.80;56.50;;;;;;5012283;28;19961;-75
2022/03/04 00:29:07;;;;;;;12.63;8.82;;;18.80;55.90;;;;;;5011553;28;20026;-75
2022/03/04 00:31:33;;;;;;;11.40;8.23;;;18.70;55.90;;;;;;5012149;28;20042;-75
2022/03/04 00:34:00;;;;;;;12.75;8.68;;;18.70;55.90;;;;;;5012325;28;20040;-75
2022/03/04 00:36:27;;;;;;;16.30;8.90;;;18.70;56.00;;;;;;5011431;28;20021;-75
2022/03/04 00:38:54;;;;;;;14.63;9.50;;;18.70;56.00;;;;;;5011692;28;20469;-75
2022/03/04 00:41:21;;;;;;;12.30;8.68;;;18.70;56.00;;;;;;5011881;28;20022;-74
2022/03/04 00:43:48;;;;;;;10.82;8.00;;;18.60;56.00;;;;;;5011619;28;20022;-75
2022/03/04 00:46:14;;;;;;;11.48;8.40;;;18.60;56.50;;;;;;5007287;28;20113;-75
2022/03/04 00:48:44;;;;;;;14.68;9.07;;;18.60;55.90;;;;;;5001559;28;20053;-75
2022/03/04 00:51:11;;;;;;;12.65;8.57;;;18.50;55.90;;;;;;5011826;28;20084;-75
2022/03/04 00:53:37;;;;;;;11.65;8.98;;;18.60;55.90;;;;;;5010898;28;20445;-75
2022/03/04 00:56:03;;;;;;;13.45;8.38;;;18.50;55.80;;;;;;5012219;28;20421;-76
2022/03/04 00:58:29;;;;;;;11.75;8.23;;;18.50;55.80;;;;;;5012484;28;20044;-74
2022/03/04 01:00:55;;;;;;;11.38;8.80;;;18.50;55.80;;;;;;5012019;28;20385;-75
2022/03/04 01:03:20;;;;;;;13.30;9.15;;;18.50;56.10;;;;;;5011366;28;20393;-75
2022/03/04 01:05:46;;;;;;;12.30;8.45;;;18.50;57.10;;;;;;5011663;28;20026;-75
2022/03/04 01:08:12;;;;;;;11.77;8.13;;;18.40;57.40;;;;;;5011550;28;20094;-75
2022/03/04 01:10:38;;;;;;;12.18;8.30;;;18.40;57.90;;;;;;5010507;28;20104;-79
2022/03/04 01:13:04;;;;;;;12.10;8.80;;;18.40;58.20;;;;;;5010415;28;20165;-79
2022/03/04 01:15:29;;;;;;;13.02;9.20;;;18.40;58.40;;;;;;5010179;28;20113;-80
2022/03/04 01:17:55;;;;;;;13.57;9.30;;;18.40;58.50;;;;;;5011022;28;20042;-75
2022/03/04 01:20:22;;;;;;;12.70;8.70;;;18.40;58.90;;;;;;5011004;28;20124;-73
2022/03/04 01:22:47;;;;;;;11.68;9.20;;;18.30;58.90;;;;;;5010486;28;20385;-75
2022/03/04 01:25:13;;;;;;;12.65;9.10;;;18.30;58.80;;;;;;5011102;28;20038;-74
2022/03/04 01:27:39;;;;;;;12.65;9.77;;;18.30;58.80;;;;;;5011307;28;20486;-74
2022/03/04 01:30:07;;;;;;;11.63;8.80;;;18.30;58.70;;;;;;5011657;28;20113;-74
2022/03/04 01:32:33;;;;;;;12.02;9.13;;;18.30;58.70;;;;;;5011133;28;20588;-74
2022/03/04 01:34:59;;;;;;;14.05;8.93;;;18.30;58.70;;;;;;5011189;28;20048;-74
2022/03/04 01:37:25;;;;;;;12.23;9.82;;;18.30;58.90;;;;;;5011143;28;20022;-75
2022/03/04 01:39:51;;;;;;;12.40;9.38;;;18.20;58.60;;;;;;5010497;28;20105;-75
2022/03/04 01:42:16;;;;;;;11.73;9.07;;;18.20;58.60;;;;;;5010705;28;20022;-75
2022/03/04 01:44:42;;;;;;;12.15;9.57;;;18.20;58.50;;;;;;4992675;28;20080;-74
2022/03/04 01:47:08;;;;;;;13.48;9.93;;;18.20;58.50;;;;;;5011103;28;20037;-74
2022/03/04 01:49:34;;;;;;;13.23;8.75;;;18.10;58.40;;;;;;5010430;28;20030;-74
2022/03/04 01:52:01;;;;;;;11.85;9.25;;;18.10;58.30;;;;;;5009545;28;20395;-74
2022/03/04 01:54:26;;;;;;;13.55;9.63;;;18.10;58.20;;;;;;4993026;28;20038;-73
2022/03/04 01:56:52;;;;;;;10.45;8.50;;;18.10;58.10;;;;;;4993377;28;20076;-74
2022/03/04 01:59:18;;;;;;;13.57;8.95;;;18.00;58.20;;;;;;5011413;28;20104;-73
2022/03/04 02:01:44;;;;;;;12.30;9.43;;;18.00;58.00;;;;;;5010675;28;20113;-74
2022/03/04 02:04:09;;;;;;;12.30;8.98;;;18.00;57.90;;;;;;4993178;28;20033;-73
2022/03/04 02:06:35;;;;;;;11.18;8.65;;;18.00;57.90;;;;;;5009520;28;20444;-73
2022/03/04 02:09:01;;;;;;;13.63;9.23;;;18.00;57.80;;;;;;4992190;28;20057;-74
2022/03/04 02:11:27;;;;;;;13.38;10.00;;;17.90;57.70;;;;;;5010367;28;20057;-73
2022/03/04 02:13:52;;;;;;;12.48;8.98;;;18.00;57.70;;;;;;5010762;28;20050;-73
2022/03/04 02:16:38;;;;;;;12.90;10.43;;;17.90;57.70;;;;;;5010727;28;20050;-73
2022/03/04 02:19:04;;;;;;;10.32;8.45;;;17.90;57.60;;;;;;5011636;28;20553;-75
2022/03/04 02:21:32;;;;;;;13.57;9.45;;;17.90;57.50;;;;;;5010443;28;20138;-74
2022/03/04 02:23:58;;;;;;;13.48;9.50;;;17.80;57.40;;;;;;5009365;28;20453;-75
2022/03/04 02:26:24;;;;;;;11.68;9.00;;;17.80;57.40;;;;;;5010395;28;20034;-73
2022/03/04 02:28:52;;;;;;;13.68;9.32;;;17.80;57.40;;;;;;5010522;28;20469;-73
2022/03/04 02:31:21;;;;;;;13.30;8.90;;;17.80;57.30;;;;;;5010591;28;20052;-73
2022/03/04 02:33:48;;;;;;;12.10;9.50;;;17.80;57.20;;;;;;5010680;28;20034;-73
2022/03/04 02:36:14;;;;;;;12.23;9.65;;;17.80;57.70;;;;;;5010858;28;20038;-74
2022/03/04 02:38:40;;;;;;;13.85;9.00;;;17.80;57.10;;;;;;5009557;28;20030;-74
2022/03/04 02:41:06;;;;;;;12.32;9.25;;;17.70;57.00;;;;;;5010941;28;20033;-73
2022/03/04 02:43:33;;;;;;;12.13;9.30;;;17.70;56.90;;;;;;4992867;28;20033;-76
2022/03/04 02:45:59;;;;;;;12.00;8.65;;;17.70;56.80;;;;;;5010276;28;20478;-77
2022/03/04 02:48:24;;;;;;;10.13;8.63;;;17.70;56.80;;;;;;5010665;28;20108;-78
2022/03/04 02:50:50;;;;;;;11.07;9.30;;;17.70;56.80;;;;;;5010131;28;20026;-77
2022/03/04 02:53:17;;;;;;;11.23;9.55;;;17.60;56.70;;;;;;5013716;28;20107;-80
2022/03/04 02:55:43;;;;;;;13.48;9.18;;;17.60;56.70;;;;;;5012510;28;20436;-78
2022/03/04 02:58:08;;;;;;;10.40;8.25;;;17.60;56.60;;;;;;5014371;28;20053;-75
2022/03/04 03:00:34;;;;;;;11.23;8.95;;;17.60;56.60;;;;;;5014455;28;20477;-74
2022/03/04 03:03:00;;;;;;;11.82;9.32;;;17.60;56.50;;;;;;5014125;28;20026;-75
2022/03/04 03:05:26;;;;;;;12.18;8.65;;;17.60;56.50;;;;;;5013882;28;20057;-73
2022/03/04 03:07:51;;;;;;;12.15;8.52;;;17.60;56.40;;;;;;5014240;28;20417;-74
2022/03/04 03:10:17;;;;;;;16.10;8.95;;;17.50;56.30;;;;;;5014075;28;20037;-73
2022/03/04 03:12:43;;;;;;;12.85;8.98;;;17.50;56.40;;;;;;5013622;28;20058;-74
2022/03/04 03:15:11;;;;;;;12.60;9.32;;;17.50;56.30;;;;;;5014480;28;20548;-74
2022/03/04 03:17:36;;;;;;;11.23;8.98;;;17.40;56.20;;;;;;4995737;28;20030;-75
2022/03/04 03:20:04;;;;;;;12.95;9.80;;;17.40;56.20;;;;;;5014108;28;20535;-74
2022/03/04 03:22:30;;;;;;;11.50;8.18;;;;;;;;;;5012898;28;20398;-74
2022/03/04 03:24:56;;;;;;;11.05;8.90;;;;;;;;;;5013969;28;20030;-74
2022/03/04 03:27:22;;;;;;;11.40;9.40;;;;;;;;;;5011868;28;20026;-74
2022/03/04 03:29:48;;;;;;;10.48;8.05;;;17.40;56.20;;;;;;5013793;28;20034;-75
2022/03/04 03:32:14;;;;;;;11.73;8.80;;;17.40;56.00;;;;;;5013468;28;20033;-74
2022/03/04 03:34:40;;;;;;;11.15;8.27;;;17.40;56.00;;;;;;5013788;28;20042;-74
2022/03/04 03:37:08;;;;;;;10.85;7.78;;;17.30;55.90;;;;;;4996226;28;20033;-75
2022/03/04 03:39:33;;;;;;;11.68;8.95;;;17.30;55.80;;;;;;5013447;28;20490;-74
2022/03/04 03:41:59;;;;;;;12.40;9.07;;;17.30;55.90;;;;;;5012781;28;20025;-73
2022/03/04 03:44:26;;;;;;;12.23;9.30;;;17.30;55.80;;;;;;5011216;28;20394;-74
2022/03/04 03:46:51;;;;;;;11.82;8.85;;;17.30;55.80;;;;;;5013187;28;20040;-74
2022/03/04 03:49:17;;;;;;;10.80;7.53;;;17.20;55.70;;;;;;5013295;28;20025;-75
2022/03/04 03:51:43;;;;;;;9.68;8.20;;;17.20;55.70;;;;;;5012850;28;20040;-74
2022/03/04 03:54:09;;;;;;;10.07;7.90;;;17.20;55.70;;;;;;5013229;28;20049;-74
2022/03/04 03:56:35;;;;;;;10.20;8.35;;;17.20;55.60;;;;;;5011995;28;20042;-74
2022/03/04 03:59:00;;;;;;;11.52;8.55;;;17.20;55.60;;;;;;5013016;28;20048;-74
2022/03/04 04:01:26;;;;;;;11.43;8.50;;;17.20;55.60;;;;;;5012863;28;20022;-75
2022/03/04 04:03:52;;;;;;;13.05;8.95;;;17.20;55.50;;;;;;5012175;28;20053;-75
2022/03/04 04:06:18;;;;;;;11.27;8.10;;;17.10;55.50;;;;;;5013009;28;20053;-77
2022/03/04 04:08:44;;;;;;;13.85;8.38;;;17.10;55.90;;;;;;5012654;28;20473;-76
2022/03/04 04:11:09;;;;;;;11.40;8.52;;;17.10;55.80;;;;;;5013384;28;20022;-76
2022/03/04 04:13:35;;;;;;;9.77;8.23;;;17.10;55.70;;;;;;5012574;28;20033;-74
2022/03/04 04:16:01;;;;;;;10.20;8.45;;;17.00;55.60;;;;;;5012900;28;20409;-75
2022/03/04 04:18:26;;;;;;;10.60;8.00;;;17.00;55.60;;;;;;5012776;28;20109;-75
2022/03/04 04:20:52;;;;;;;10.55;7.85;;;17.00;55.50;;;;;;5012988;28;20057;-76
2022/03/04 04:23:18;;;;;;;12.05;7.72;;;17.00;55.40;;;;;;5012624;28;20029;-76
2022/03/04 04:25:43;;;;;;;9.35;7.63;;;17.00;55.30;;;;;;5012634;28;20029;-73
2022/03/04 04:28:09;;;;;;;13.23;8.15;;;17.00;55.30;;;;;;5012996;28;20532;-76
2022/03/04 04:30:35;;;;;;;10.75;8.00;;;17.00;55.20;;;;;;5012431;28;20030;-75
2022/03/04 04:33:00;;;;;;;12.38;8.60;;;17.00;55.20;;;;;;5012506;28;20038;-75
2022/03/04 04:35:26;;;;;;;10.40;8.07;;;17.00;55.20;;;;;;5012199;28;20076;-75
2022/03/04 04:37:52;;;;;;;9.48;7.70;;;17.00;55.20;;;;;;5012425;28;20037;-77
2022/03/04 04:40:18;;;;;;;10.93;7.40;;;17.00;55.20;;;;;;5012594;28;20093;-78
2022/03/04 04:42:44;;;;;;;9.52;7.90;;;17.00;55.10;;;;;;5012449;28;20022;-76
2022/03/04 04:45:10;;;;;;;9.70;7.82;;;16.90;55.10;;;;;;5012904;28;20473;-77
2022/03/04 04:47:35;;;;;;;12.20;8.02;;;16.90;55.00;;;;;;5012013;28;20040;-75
2022/03/04 04:50:02;;;;;;;9.63;8.40;;;16.90;55.00;;;;;;5012402;28;20025;-73
2022/03/04 04:52:28;;;;;;;12.27;8.30;;;16.90;55.00;;;;;;5012161;28;20026;-75
2022/03/04 04:54:54;;;;;;;9.95;7.65;;;16.90;54.90;;;;;;5012007;28;20480;-74
2022/03/04 04:57:20;;;;;;;10.27;8.13;;;16.90;54.90;;;;;;5010077;28;20034;-75
2022/03/04 04:59:46;;;;;;;11.27;8.07;;;16.80;54.80;;;;;;5011799;28;20044;-74
2022/03/04 05:02:11;;;;;;;11.68;8.20;;;16.80;54.90;;;;;;5011906;28;20401;-74
2022/03/04 05:04:37;;;;;;;11.32;8.48;;;16.80;54.90;;;;;;5011048;28;20030;-75
2022/03/04 05:07:03;;;;;;;9.95;7.72;;;16.80;54.90;;;;;;5011588;28;20037;-74
2022/03/04 05:09:29;;;;;;;13.27;8.15;;;16.80;54.80;;;;;;5011697;28;20104;-74
2022/03/04 05:11:54;;;;;;;9.50;7.57;;;16.70;54.70;;;;;;5010214;28;20028;-74
2022/03/04 05:14:20;;;;;;;9.60;7.35;;;16.70;54.70;;;;;;5010114;28;20081;-74
2022/03/04 05:16:46;;;;;;;9.25;7.80;;;16.70;54.60;;;;;;4992369;28;20023;-75
2022/03/04 05:19:11;;;;;;;11.02;7.30;;;16.70;54.60;;;;;;4992533;28;20035;-75
2022/03/04 05:21:37;;;;;;;10.35;8.00;;;16.70;54.60;;;;;;4991845;28;20022;-75
2022/03/04 05:24:06;;;;;;;11.95;7.90;;;16.70;54.50;;;;;;4992249;28;20038;-74
2022/03/04 05:26:35;;;;;;;11.55;8.27;;;16.70;54.40;;;;;;4991953;28;20497;-75
2022/03/04 05:29:02;;;;;;;10.23;7.30;;;16.70;54.40;;;;;;4992042;28;20525;-75
2022/03/04 05:31:28;;;;;;;12.65;8.10;;;16.70;54.40;;;;;;4998591;28;20053;-74
2022/03/04 05:33:55;;;;;;;11.07;8.05;;;16.70;54.40;;;;;;5011327;28;20066;-76
2022/03/04 05:36:21;;;;;;;10.02;8.13;;;16.70;54.40;;;;;;5011069;28;20029;-75
2022/03/04 05:38:48;;;;;;;10.65;7.95;;;16.70;54.30;;;;;;5010961;28;20049;-75
2022/03/04 05:41:15;;;;;;;10.00;8.60;;;16.70;54.90;;;;;;4994306;28;20022;-75
2022/03/04 05:43:41;;;;;;;9.95;7.75;;;16.60;54.30;;;;;;5011293;28;20485;-76
2022/03/04 05:46:07;;;;;;;12.07;8.60;;;16.60;54.20;;;;;;5011678;28;20034;-76
2022/03/04 05:48:33;;;;;;;10.45;8.35;;;16.60;54.20;;;;;;5010828;28;20080;-75
2022/03/04 05:50:59;;;;;;;10.70;8.45;;;16.60;54.10;;;;;;5011494;28;20030;-76
2022/03/04 05:53:24;;;;;;;13.93;9.27;;;16.60;54.10;;;;;;5011158;28;20038;-75
2022/03/04 05:55:51;;;;;;;11.77;7.72;;;16.60;54.10;;;;;;4993789;28;20033;-75
2022/03/04 05:58:16;;;;;;;11.77;9.23;;;16.60;54.00;;;;;;5011787;28;20030;-74
2022/03/04 06:00:42;;;;;;;10.38;8.25;;;16.60;53.90;;;;;;4992647;28;20030;-76
2022/03/04 06:03:08;;;;;;;10.88;8.23;;;16.60;53.80;;;;;;5011070;28;20049;-76
2022/03/04 06:05:34;;;;;;;10.93;8.52;;;16.70;53.80;;;;;;4993413;28;20514;-75
2022/03/04 06:08:00;;;;;;;10.57;7.85;;;16.70;53.70;;;;;;5010036;28;20018;-77
2022/03/04 06:10:26;;;;;;;12.40;8.27;;;16.70;53.60;;;;;;5007939;28;20037;-78
2022/03/04 06:12:52;;;;;;;10.40;8.15;;;16.70;53.50;;;;;;4990266;28;20014;-76
2022/03/04 06:15:17;;;;;;;12.20;8.75;;;16.80;53.50;;;;;;5001283;28;20041;-78
2022/03/04 06:17:50;;;;;;;10.23;8.32;;;16.80;53.40;;;;;;4993159;28;20022;-76
2022/03/04 06:20:19;;;;;;;12.60;8.73;;;16.80;53.30;;;;;;5011468;28;20026;-77
2022/03/04 06:22:45;;;;;;;11.80;8.90;;;16.80;53.30;;;;;;5010941;28;20065;-79
2022/03/04 06:25:11;;;;;;;9.63;8.45;;;16.90;53.30;;;;;;5011243;28;20058;-78
2022/03/04 06:27:49;;;;;;;11.27;7.95;;;16.90;53.20;;;;;;5013685;28;20166;-77
2022/03/04 06:30:15;;;;;;;11.23;8.35;;;16.90;53.20;;;;;;4997245;28;20033;-76
2022/03/04 06:32:41;;;;;;;12.65;8.98;;;16.90;53.10;;;;;;5013996;28;20505;-76
2022/03/04 06:35:07;;;;;;;15.00;8.10;;;16.90;53.00;;;;;;5014899;28;20091;-76
2022/03/04 06:37:32;;;;;;;10.55;8.07;;;16.90;53.00;;;;;;4996026;28;20022;-76
2022/03/04 06:39:58;;;;;;;12.85;8.38;;;17.00;53.00;;;;;;5009959;28;20100;-76
2022/03/04 06:42:23;;;;;;;10.48;7.80;;;17.00;52.90;;;;;;4994866;28;20509;-76
2022/03/04 06:44:49;;;;;;;11.27;8.02;;;17.00;53.00;;;;;;5007525;28;20046;-76
2022/03/04 06:47:15;;;;;;;11.82;8.52;;;17.00;53.00;;;;;;5014682;28;20065;-76
2022/03/04 06:49:40;;;;;;;8.63;7.32;;;17.00;53.00;;;;;;4996855;28;20049;-77
2022/03/04 06:52:06;;;;;;;10.68;7.88;;;17.00;53.00;;;;;;5014631;28;20034;-77
2022/03/04 06:54:33;;;;;;;10.40;7.75;;;17.00;53.00;;;;;;5014368;28;20109;-76
2022/03/04 06:56:59;;;;;;;9.25;7.72;;;17.00;53.00;;;;;;5014286;28;20022;-76
2022/03/04 06:59:25;;;;;;;11.18;7.93;;;17.10;53.20;;;;;;5013512;28;20030;-76
2022/03/04 07:01:51;;;;;;;11.82;7.82;;;17.10;53.20;;;;;;5014336;28;20044;-74
2022/03/04 07:04:16;;;;;;;8.32;6.93;;;17.20;53.50;;;;;;5014788;28;20105;-74
2022/03/04 07:06:42;;;;;;;11.35;8.30;;;17.20;53.50;;;;;;5014134;28;20497;-74
2022/03/04 07:09:08;;;;;;;10.35;7.68;;;17.20;53.90;;;;;;5014156;28;20026;-75
2022/03/04 07:11:33;;;;;;;10.43;8.15;;;17.30;54.00;;;;;;5009370;28;20030;-76
2022/03/04 07:13:59;;;;;;;17.58;7.93;;;17.30;54.10;;;;;;4996491;28;20030;-74
2022/03/04 07:16:24;;;;;;;10.55;7.72;;;17.30;54.10;;;;;;5014017;28;20030;-76
2022/03/04 07:18:50;;;;;;;12.73;8.27;;;17.30;54.50;;;;;;5014117;28;20037;-76
2022/03/04 07:21:16;;;;;;;13.95;8.35;;;;;;;;;;5014259;28;20497;-80
2022/03/04 07:23:42;;;;;;;18.60;8.93;;;;;;;;;;5008753;28;20027;-77
2022/03/04 07:26:10;;;;;;;14.65;9.85;;;;;;;;;;4994448;28;20617;-74
2022/03/04 07:28:36;;;;;;;14.15;8.90;;;;;;;;;;5011407;28;20485;-76
2022/03/04 07:31:02;;;;;;;31.65;10.75;;;;;;;;;;5013817;28;20034;-76
2022/03/04 07:33:28;;;;;;;15.45;10.27;;;;;;;;;;5013428;28;20038;-75
2022/03/04 07:35:54;;;;;;;15.20;9.70;;;;;;;;;;5013136;28;20045;-75
2022/03/04 07:38:20;;;;;;;16.40;11.18;;;;;;;;;;5012479;28;20026;-76
2022/03/04 07:40:47;;;;;;;16.95;11.73;;;;;;;;;;5014140;28;20030;-75
2022/03/04 07:43:13;;;;;;;17.88;11.80;;;;;;;;;;5013673;28;20026;-75
2022/03/04 07:45:39;;;;;;;19.38;11.02;;;;;;;;;;5013333;28;20033;-74
2022/03/04 07:48:05;;;;;;;16.27;11.18;;;;;;;;;;5012966;28;20084;-75
2022/03/04 07:50:31;;;;;;;14.35;11.50;;;;;;;;;;5012247;28;20405;-74
2022/03/04 07:52:57;;;;;;;16.27;11.63;;;;;;;;;;5012073;28;20536;-74
2022/03/04 07:55:26;;;;;;;15.73;12.15;;;;;;;;;;5011549;28;20088;-82
2022/03/04 07:57:53;;;;;;;16.63;12.63;;;;;;;;;;5009851;28;20022;-74
2022/03/04 08:00:24;;;;;;;18.35;13.10;;;;;;;;;;5014122;28;20490;-77
2022/03/04 08:02:50;;;;;;;20.00;14.55;;;;;;;;;;5012842;28;20109;-77
2022/03/04 08:05:16;;;;;;;22.83;15.95;;;;;;;;;;5013545;28;20564;-76
2022/03/04 08:07:42;;;;;;;25.73;18.55;;;;;;;;;;5012893;28;20030;-74
2022/03/04 08:10:09;;;;;;;23.95;16.80;;;;;;;;;;5011672;28;20029;-75
2022/03/04 08:12:36;;;;;;;21.95;16.95;;;;;;;;;;5011510;28;20026;-79
2022/03/04 08:15:02;;;;;;;23.50;16.63;;;;;;;;;;5011495;28;20116;-74
2022/03/04 08:17:30;;;;;;;20.58;15.18;;;;;;;;;;5011241;28;20025;-84
2022/03/04 08:19:55;;;;;;;23.08;15.05;;;17.30;54.00;;;;;;5012346;28;20057;-81
2022/03/04 08:22:22;;;;;;;21.17;14.27;;;17.70;53.00;;;;;;5012514;28;20116;-81
2022/03/04 08:24:47;;;;;;;18.88;14.32;;;17.70;54.50;;;;;;5013347;28;20470;-81
2022/03/04 08:27:13;;;;;;;17.85;13.70;;;17.70;51.90;;;;;;5013025;28;20113;-74
2022/03/04 08:29:39;;;;;;;20.60;13.35;;;17.70;51.80;;;;;;5007952;28;20409;-76
2022/03/04 08:32:05;;;;;;;16.90;12.07;;;17.60;51.80;;;;;;5011247;28;20038;-76
2022/03/04 08:34:31;;;;;;;15.38;11.77;;;;;;;;;;5011858;28;20499;-75
2022/03/04 08:36:57;;;;;;;19.25;11.55;;;;;;;;;;5011047;28;20017;-77
2022/03/04 08:39:23;;;;;;;19.10;11.80;;;;;;;;;;4993233;28;20034;-77
2022/03/04 08:41:49;;;;;;;16.20;11.25;;;;;;;;;;5012287;28;20077;-75
2022/03/04 08:44:15;;;;;;;15.23;10.65;;;;;;;;;;5012386;28;20076;-77
2022/03/04 08:46:41;;;;;;;16.38;11.35;;;;;;;;;;5012291;28;20489;-76
2022/03/04 08:49:09;;;;;;;15.13;10.77;;;;;;;;;;5011488;28;20097;-76
2022/03/04 08:51:35;;;;;;;16.42;10.85;;;;;;;;;;5010333;28;20037;-78
2022/03/04 08:54:02;;;;;;;15.52;10.48;;;;;;;;;;5010532;28;20122;-81
2022/03/04 08:56:28;;;;;;;13.75;9.90;;;;;;;;;;5011556;28;20050;-77
2022/03/04 08:58:54;;;;;;;15.60;9.70;;;;;;;;;;5011958;28;20052;-77
2022/03/04 09:01:20;;;;;;;14.65;8.95;;;;;;;;;;5012179;28;20022;-75
2022/03/04 09:03:46;;;;;;;12.73;9.15;;;;;;;;;;5012563;28;20062;-80
2022/03/04 09:06:13;;;;;;;14.30;9.73;;;;;;;;;;5012243;28;20049;-80
2022/03/04 09:08:38;;;;;;;11.80;8.52;;;;;;;;;;5012019;28;20026;-80
2022/03/04 09:11:05;;;;;;;11.43;8.73;;;;;;;;;;5011997;28;20480;-87
2022/03/04 09:13:32;;;;;;;14.32;8.60;;;;;;;;;;5011459;28;20466;-77
2022/03/04 09:15:58;;;;;;;13.77;9.52;;;;;;;;;;5012151;28;20018;-77
2022/03/04 09:18:25;;;;;;;12.80;9.18;;;;;;;;;;5007256;28;20030;-78
2022/03/04 09:20:51;;;;;;;12.05;8.02;;;;;;;;;;4993745;28;20449;-79
2022/03/04 09:23:17;;;;;;;11.32;8.00;;;;;;;;;;5011082;28;20030;-83
2022/03/04 09:25:43;;;;;;;12.70;8.27;;;;;;;;;;5010508;28;20461;-80
2022/03/04 09:28:09;;;;;;;11.60;8.02;;;;;;;;;;5011081;28;20022;-77
2022/03/04 09:30:36;;;;;;;13.48;8.73;;;;;;;;;;4989495;28;20096;-77
2022/03/04 09:33:02;;;;;;;11.43;7.97;;;17.70;51.90;;;;;;5011417;28;20037;-77
2022/03/04 09:35:28;;;;;;;13.93;8.30;;;18.50;52.30;;;;;;5010787;28;20087;-74
2022/03/04 09:37:54;;;;;;;12.15;7.63;;;18.50;53.20;;;;;;5011637;28;20386;-81
2022/03/04 09:40:20;;;;;;;10.48;8.02;;;18.50;52.70;;;;;;5011470;28;20096;-74
2022/03/04 09:42:45;;;;;;;16.52;8.55;;;18.50;52.50;;;;;;4993789;28;20026;-81
2022/03/04 09:45:11;;;;;;;11.52;7.70;;;18.50;52.70;;;;;;5011743;28;20022;-76
2022/03/04 09:47:39;;;;;;;9.75;7.38;;;18.60;52.50;;;;;;5011451;28;20030;-79
2022/03/04 09:50:06;;;;;;;14.23;7.82;;;18.60;52.40;;;;;;5011707;28;20022;-74
2022/03/04 09:52:32;;;;;;;22.60;7.35;;;;;;;;;;5010047;28;20117;-77
2022/03/04 09:54:58;;;;;;;14.05;8.27;;;;;;;;;;5011388;28;20122;-79
2022/03/04 09:57:24;;;;;;;14.68;7.32;;;;;;;;;;5010955;28;20061;-82
2022/03/04 09:59:51;;;;;;;11.30;7.88;;;;;;;;;;5011523;28;20552;-75
2022/03/04 10:02:17;;;;;;;10.93;7.35;;;;;;;;;;5009756;28;20121;-75
2022/03/04 10:04:43;;;;;;;14.75;7.18;;;;;;;;;;5011227;28;20097;-74
2022/03/04 10:07:13;;;;;;;14.45;8.07;;;;;;;;;;5011402;28;20037;-74
2022/03/04 10:09:42;;;;;;;11.57;7.32;;;;;;;;;;5011173;28;20034;-75
2022/03/04 10:12:08;;;;;;;10.52;7.57;;;;;;;;;;5011209;28;20164;-74
2022/03/04 10:14:34;;;;;;;11.00;7.57;;;;;;;;;;5009850;28;20375;-73
2022/03/04 10:17:02;;;;;;;13.80;8.10;;;;;;;;;;5011321;28;20076;-73
2022/03/04 10:19:29;;;;;;;13.82;7.63;;;;;;;;;;5010647;28;20030;-73
2022/03/04 10:21:55;;;;;;;16.65;7.95;;;;;;;;;;5011184;28;20034;-76
2022/03/04 10:24:30;;;;;;;13.60;7.45;;;;;;;;;;5009789;28;20029;-75
2022/03/04 10:27:04;;;;;;;11.23;7.95;;;18.60;52.10;;;;;;5011302;28;20026;-83
2022/03/04 10:29:38;;;;;;;10.50;6.95;;;19.10;50.60;;;;;;5011058;28;20042;-74
2022/03/04 10:32:08;;;;;;;12.20;6.85;;;19.10;50.90;;;;;;5010973;28;20042;-78
2022/03/04 10:34:42;;;;;;;12.73;7.38;;;19.10;50.70;;;;;;5009809;28;20041;-75
2022/03/04 10:37:08;;;;;;;12.18;7.32;;;19.20;50.60;;;;;;5006865;28;20033;-75
2022/03/04 10:39:33;;;;;;;18.27;7.22;;;19.20;50.60;;;;;;5010515;28;20026;-74
2022/03/04 10:41:59;;;;;;;16.17;7.00;;;19.20;50.70;;;;;;5010728;28;20036;-76
2022/03/04 10:44:26;;;;;;;12.75;7.03;;;19.30;50.70;;;;;;4994454;28;20034;-73
2022/03/04 10:46:58;;;;;;;10.05;6.25;;;19.20;50.60;;;;;;5010980;28;20401;-74
2022/03/04 10:49:25;;;;;;;11.40;6.60;;;19.30;50.70;;;;;;5010583;28;20026;-74
2022/03/04 10:52:06;;;;;;;9.18;6.53;;;19.30;50.70;;;;;;5008737;28;20162;-74
2022/03/04 10:54:32;;;;;;;11.68;7.00;;;19.30;50.70;;;;;;5006440;28;20497;-77
2022/03/04 10:57:02;;;;;;;8.70;6.15;;;19.30;50.70;;;;;;5010570;28;20025;-76
2022/03/04 10:59:27;;;;;;;10.70;6.75;;;19.30;50.70;;;;;;5009162;28;20459;-75
2022/03/04 11:01:56;;;;;;;12.77;6.80;;;19.30;50.60;;;;;;5009026;28;20133;-76
2022/03/04 11:04:23;;;;;;;12.20;6.45;;;19.30;50.60;;;;;;5005448;28;20549;-77
2022/03/04 11:06:50;;;;;;;12.93;6.18;;;19.40;50.50;;;;;;5009340;28;20117;-74
2022/03/04 11:09:17;;;;;;;13.27;7.00;;;19.40;50.20;;;;;;5009187;28;20034;-74
2022/03/04 11:11:44;;;;;;;8.07;6.28;;;19.50;50.20;;;;;;5010342;28;20014;-74
2022/03/04 11:14:13;;;;;;;9.25;5.90;;;;;;;;;;5012097;28;20512;-78
2022/03/04 11:16:40;;;;;;;9.65;6.10;;;;;;;;;;5011950;28;20591;-77
2022/03/04 11:19:07;;;;;;;10.23;6.38;;;;;;;;;;5011664;28;20049;-77
2022/03/04 11:21:33;;;;;;;8.63;6.30;;;;;;;;;;5013138;28;20037;-76
2022/03/04 11:24:00;;;;;;;9.43;5.97;;;19.60;50.20;;;;;;5013203;28;20108;-75
2022/03/04 11:26:29;;;;;;;9.07;6.15;;;19.90;49.50;;;;;;5012691;28;20061;-75
2022/03/04 11:28:56;;;;;;;11.23;6.30;;;19.90;49.80;;;;;;5004699;28;20076;-79
2022/03/04 11:31:25;;;;;;;10.30;6.03;;;20.00;49.70;;;;;;5010446;28;20033;-76
2022/03/04 11:33:52;;;;;;;10.48;6.03;;;20.00;49.50;;;;;;5011704;28;20026;-75
2022/03/04 11:36:18;;;;;;;9.77;5.95;;;20.00;49.50;;;;;;5013113;28;20094;-74
2022/03/04 11:38:47;;;;;;;10.55;6.65;;;20.00;49.40;;;;;;4995275;28;20029;-79
2022/03/04 11:41:30;;;;;;;9.52;6.53;;;20.00;49.30;;;;;;5008443;28;20035;-77
2022/03/04 11:43:58;;;;;;;11.43;5.80;;;;;;;;;;5012949;28;20026;-82
2022/03/04 11:46:40;;;;;;;9.85;6.10;;;20.20;49.00;;;;;;5012709;28;20513;-78
2022/03/04 11:49:24;;;;;;;12.93;7.13;;;20.80;48.30;;;;;;5008914;28;20465;-73
2022/03/04 11:52:12;;;;;;;8.75;5.80;;;22.00;47.10;;;;;;4998482;28;20053;-73
2022/03/04 11:54:43;;;;;;;8.10;5.20;;;23.40;44.00;;;;;;5012430;28;20034;-75
2022/03/04 12:00:33;;;;;;;9.45;5.57;;;25.50;40.70;;;;;;5011725;28;20033;-74
2022/03/04 12:03:08;;;;;;;9.40;5.95;;;26.30;38.80;;;;;;5011756;28;20084;-75
2022/03/04 12:05:35;;;;;;;10.00;5.68;;;26.80;37.80;;;;;;5010620;28;20490;-75
2022/03/04 12:08:00;;;;;;;13.18;6.25;;;27.00;37.30;;;;;;4991768;28;20065;-74
2022/03/04 12:10:38;;;;;;;10.02;6.32;;;27.40;36.90;;;;;;5003638;28;20057;-75
2022/03/04 12:13:06;;;;;;;7.05;5.47;;;28.00;35.50;;;;;;5012506;28;20033;-74
2022/03/04 12:15:40;;;;;;;8.05;5.95;;;28.30;35.40;;;;;;4996309;28;20508;-75
2022/03/04 12:18:25;;;;;;;10.98;5.93;;;29.00;34.90;;;;;;5012600;28;20018;-74
2022/03/04 12:20:57;;;;;;;8.57;6.18;;;29.40;34.70;;;;;;5012379;28;20033;-73
2022/03/04 12:23:36;;;;;;;7.90;5.32;;;29.70;33.90;;;;;;5012034;28;20022;-76
2022/03/04 12:26:01;;;;;;;9.40;6.10;;;29.80;33.50;;;;;;4993950;28;20440;-74
2022/03/04 12:28:40;;;;;;;10.30;7.05;;;30.00;33.30;;;;;;5010802;28;20108;-80
2022/03/04 12:31:12;;;;;;;10.05;6.25;;;30.00;32.90;;;;;;5011583;28;20060;-75
2022/03/04 12:33:54;;;;;;;8.90;6.05;;;30.10;32.80;;;;;;4993360;28;20559;-75
2022/03/04 12:36:21;;;;;;;9.35;6.00;;;30.40;32.70;;;;;;5012066;28;20048;-75
2022/03/04 12:38:51;;;;;;;10.75;6.40;;;30.50;32.60;;;;;;5012355;28;20030;-78
2022/03/04 12:41:21;;;;;;;12.98;5.53;;;30.50;32.50;;;;;;4996430;28;20076;-75
2022/03/04 12:43:49;;;;;;;6.78;5.32;;;30.40;33.00;;;;;;5010725;28;20033;-82
2022/03/04 12:46:17;;;;;;;9.23;5.35;;;30.30;32.60;;;;;;5011288;28;20405;-74
2022/03/04 12:48:43;;;;;;;8.10;5.53;;;30.50;32.60;;;;;;5011994;28;20028;-75
2022/03/04 12:51:39;;;;;;;8.65;6.03;;;30.60;32.70;;;;;;5007704;28;20025;-76
2022/03/04 12:54:28;;;;;;;9.57;5.82;;;30.50;32.80;;;;;;5006683;28;20050;-76
2022/03/04 12:56:58;;;;;;;10.40;4.72;;;28.70;34.90;;;;;;5011342;28;20029;-75
2022/03/04 12:59:24;;;;;;;9.30;5.53;;;26.90;37.80;;;;;;5003295;28;20513;-75
2022/03/04 13:01:51;;;;;;;16.30;6.00;;;26.00;39.60;;;;;;4992373;28;20517;-75
2022/03/04 13:04:17;;;;;;;13.45;6.50;;;25.30;40.90;;;;;;5011127;28;20022;-75